createdAt,value
2023-02-23T00:01:19.910Z,9.13
2023-02-23T00:04:00.231Z,9.08
2023-02-23T00:06:36.739Z,8.96
2023-02-23T00:09:13.512Z,8.98
2023-02-23T00:11:43.317Z,9.06
2023-02-23T00:14:15.546Z,9.03
2023-02-23T00:16:51.072Z,8.89
2023-02-23T00:19:24.986Z,9.02
2023-02-23T00:22:01.903Z,9.16
2023-02-23T00:24:38.862Z,8.97
2023-02-23T00:27:13.501Z,8.88
2023-02-23T00:29:43.980Z,9.04
2023-02-23T00:32:15.666Z,8.93
2023-02-23T00:34:45.082Z,9.08
2023-02-23T00:37:15.797Z,9.10
2023-02-23T00:39:46.209Z,8.79
2023-02-23T00:42:16.905Z,8.90
2023-02-23T00:44:49.346Z,8.78
2023-02-23T00:47:23.888Z,8.73
2023-02-23T00:49:57.950Z,8.68
2023-02-23T00:52:33.007Z,8.62
2023-02-23T00:55:07.647Z,8.66
2023-02-23T00:57:44.431Z,8.67
2023-02-23T01:00:28.749Z,8.81
2023-02-23T01:02:59.982Z,8.52
2023-02-23T01:05:32.242Z,8.76
2023-02-23T01:08:09.599Z,8.66
2023-02-23T01:10:46.900Z,8.63
2023-02-23T01:13:18.533Z,8.55
2023-02-23T01:15:49.133Z,8.79
2023-02-23T01:18:20.053Z,8.86
2023-02-23T01:20:52.183Z,8.71
2023-02-23T01:23:27.001Z,8.73
2023-02-23T01:25:57.421Z,8.64
2023-02-23T01:28:33.551Z,8.47
2023-02-23T01:31:03.033Z,8.52
2023-02-23T01:33:34.304Z,8.41
2023-02-23T01:36:03.848Z,8.34
2023-02-23T01:38:37.315Z,8.37
2023-02-23T01:41:11.439Z,8.58
2023-02-23T01:44:07.493Z,8.50
2023-02-23T01:46:40.114Z,8.49
2023-02-23T01:49:11.971Z,8.52
2023-02-23T01:51:44.417Z,8.35
2023-02-23T01:54:20.477Z,8.46
2023-02-23T01:56:58.424Z,8.41
2023-02-23T01:59:35.291Z,8.47
2023-02-23T02:02:09.104Z,8.34
2023-02-23T02:04:52.435Z,8.22
2023-02-23T02:07:26.298Z,8.40
2023-02-23T02:10:15.309Z,8.29
2023-02-23T02:12:54.300Z,8.40
2023-02-23T02:15:27.687Z,8.22
2023-02-23T02:18:03.440Z,8.33
2023-02-23T02:20:55.134Z,8.15
2023-02-23T02:24:09.563Z,8.13
2023-02-23T02:27:03.298Z,8.12
2023-02-23T02:30:14.091Z,8.32
2023-02-23T02:33:32.206Z,8.28
2023-02-23T02:36:27.122Z,8.09
2023-02-23T02:39:35.980Z,8.31
2023-02-23T02:42:15.168Z,8.20
2023-02-23T02:44:59.371Z,8.21
2023-02-23T02:47:33.120Z,8.21
2023-02-23T02:50:18.045Z,8.15
2023-02-23T02:52:54.887Z,8.24
2023-02-23T02:55:42.387Z,8.25
2023-02-23T02:58:16.217Z,8.42
2023-02-23T03:01:07.292Z,8.39
2023-02-23T03:03:57.700Z,8.15
2023-02-23T03:06:49.741Z,8.22
2023-02-23T03:09:46.917Z,8.30
2023-02-23T03:12:53.156Z,8.13
2023-02-23T03:16:19.159Z,8.17
2023-02-23T03:19:17.145Z,8.13
2023-02-23T03:22:08.234Z,8.11
2023-02-23T03:25:05.677Z,8.26
2023-02-23T03:28:04.171Z,8.12
2023-02-23T03:31:01.247Z,8.20
2023-02-23T03:33:58.535Z,8.16
2023-02-23T03:36:47.201Z,8.24
2023-02-23T03:39:43.180Z,8.04
2023-02-23T03:42:37.998Z,8.14
2023-02-23T03:45:30.235Z,8.17
2023-02-23T03:48:19.909Z,8.20
2023-02-23T03:51:13.599Z,8.29
2023-02-23T03:54:07.892Z,8.28
2023-02-23T03:56:59.215Z,8.37
2023-02-23T03:59:50.236Z,8.28
2023-02-23T04:02:42.420Z,8.16
2023-02-23T04:05:34.206Z,8.24
2023-02-23T04:08:28.478Z,8.05
2023-02-23T04:11:25.230Z,8.24
2023-02-23T04:14:02.792Z,8.18
2023-02-23T04:16:32.629Z,8.26
2023-02-23T04:19:16.201Z,8.20
2023-02-23T04:21:44.571Z,8.21
2023-02-23T04:24:21.055Z,8.34
2023-02-23T04:26:52.631Z,8.31
2023-02-23T04:29:30.611Z,8.24
2023-02-23T04:32:01.348Z,8.13
2023-02-23T04:34:32.590Z,8.22
2023-02-23T04:37:00.913Z,8.12
2023-02-23T04:39:30.508Z,8.28
2023-02-23T04:42:01.547Z,8.28
2023-02-23T04:44:38.255Z,8.13
2023-02-23T04:47:07.566Z,8.19
2023-02-23T04:49:53.695Z,8.16
2023-02-23T04:52:23.537Z,8.18
2023-02-23T04:54:52.971Z,8.23
2023-02-23T04:57:34.049Z,8.25
2023-02-23T05:00:05.922Z,8.31
2023-02-23T05:02:34.422Z,8.13
2023-02-23T05:05:05.694Z,7.98
2023-02-23T05:07:36.661Z,8.18
2023-02-23T05:10:11.058Z,8.17
2023-02-23T05:12:42.962Z,8.06
2023-02-23T05:15:12.773Z,8.12
2023-02-23T05:17:49.871Z,8.27
2023-02-23T05:20:29.241Z,8.24
2023-02-23T05:23:00.595Z,8.00
2023-02-23T05:25:33.676Z,8.21
2023-02-23T05:28:03.490Z,8.07
2023-02-23T05:30:36.777Z,8.05
2023-02-23T05:33:06.965Z,8.02
2023-02-23T05:35:41.144Z,8.07
2023-02-23T05:38:14.932Z,8.00
2023-02-23T05:40:44.515Z,8.06
2023-02-23T05:43:13.004Z,8.14
2023-02-23T05:45:52.499Z,7.98
2023-02-23T05:48:24.124Z,8.09
2023-02-23T05:51:05.429Z,8.16
2023-02-23T05:53:36.761Z,8.10
2023-02-23T05:56:09.106Z,7.95
2023-02-23T05:58:38.056Z,7.70
2023-02-23T06:01:07.310Z,7.78
2023-02-23T06:03:55.762Z,7.94
2023-02-23T06:06:28.602Z,8.09
2023-02-23T06:08:59.414Z,7.92
2023-02-23T06:11:33.056Z,8.11
2023-02-23T06:14:02.635Z,8.13
2023-02-23T06:16:33.817Z,8.31
2023-02-23T06:19:05.732Z,8.40
2023-02-23T06:21:38.195Z,8.37
2023-02-23T06:24:15.494Z,8.38
2023-02-23T06:26:47.371Z,8.25
2023-02-23T06:29:17.151Z,8.22
2023-02-23T06:31:47.746Z,8.35
2023-02-23T06:34:21.586Z,8.52
2023-02-23T06:36:54.182Z,8.48
2023-02-23T06:39:28.879Z,8.45
2023-02-23T06:41:59.357Z,8.59
2023-02-23T06:44:31.098Z,8.47
2023-02-23T06:47:09.082Z,8.21
2023-02-23T06:49:44.616Z,8.51
2023-02-23T06:52:15.064Z,8.34
2023-02-23T06:54:43.426Z,8.34
2023-02-23T06:57:11.799Z,8.39
2023-02-23T06:59:43.583Z,8.59
2023-02-23T07:02:19.936Z,8.46
2023-02-23T07:04:49.328Z,8.35
2023-02-23T07:07:27.242Z,8.41
2023-02-23T07:09:57.610Z,8.48
2023-02-23T07:12:28.432Z,8.56
2023-02-23T07:15:03.163Z,8.47
2023-02-23T07:17:33.776Z,8.62
2023-02-23T07:20:10.251Z,8.42
2023-02-23T07:22:42.716Z,8.14
2023-02-23T07:25:16.743Z,8.06
2023-02-23T07:27:48.652Z,8.28
2023-02-23T07:30:19.840Z,8.22
2023-02-23T07:32:49.034Z,8.19
2023-02-23T07:35:19.884Z,8.26
2023-02-23T07:38:00.165Z,8.15
2023-02-23T07:40:29.634Z,8.19
2023-02-23T07:43:08.071Z,8.22
2023-02-23T07:45:36.583Z,8.26
2023-02-23T07:48:16.437Z,8.08
2023-02-23T07:50:50.064Z,8.35
2023-02-23T07:53:22.380Z,8.38
2023-02-23T07:55:57.409Z,8.54
2023-02-23T07:58:26.759Z,8.13
2023-02-23T08:00:57.041Z,8.46
2023-02-23T08:03:26.312Z,8.48
2023-02-23T08:05:59.883Z,8.61
2023-02-23T08:08:41.508Z,8.80
2023-02-23T08:11:25.048Z,8.76
2023-02-23T08:14:02.186Z,8.94
2023-02-23T08:16:42.779Z,8.92
2023-02-23T08:19:14.799Z,9.05
2023-02-23T08:21:46.599Z,9.34
2023-02-23T08:24:24.146Z,9.64
2023-02-23T08:26:55.933Z,9.46
2023-02-23T08:29:24.668Z,9.53
2023-02-23T08:31:56.332Z,9.66
2023-02-23T08:34:26.548Z,9.67
2023-02-23T08:36:54.614Z,9.72
2023-02-23T08:39:28.883Z,9.62
2023-02-23T08:42:00.570Z,9.57
2023-02-23T08:44:39.362Z,9.81
2023-02-23T08:47:16.537Z,9.96
2023-02-23T08:49:48.597Z,9.98
2023-02-23T08:52:18.296Z,9.93
2023-02-23T08:54:50.997Z,9.87
2023-02-23T08:57:28.019Z,9.55
2023-02-23T08:59:58.413Z,9.60
2023-02-23T09:02:32.760Z,9.99
2023-02-23T09:05:01.235Z,9.89
2023-02-23T09:07:32.772Z,10.14
2023-02-23T09:10:02.872Z,10.10
2023-02-23T09:12:34.548Z,10.27
2023-02-23T09:15:06.321Z,10.24
2023-02-23T09:17:45.014Z,10.21
2023-02-23T09:20:19.906Z,10.28
2023-02-23T09:22:50.811Z,10.24
2023-02-23T09:25:26.016Z,10.19
2023-02-23T09:27:58.405Z,10.09
2023-02-23T09:30:28.741Z,10.14
2023-02-23T09:32:58.795Z,9.80
2023-02-23T09:35:30.096Z,10.06
2023-02-23T09:38:06.199Z,10.32
2023-02-23T09:40:49.119Z,10.22
2023-02-23T09:43:27.319Z,10.63
2023-02-23T09:46:02.038Z,10.67
2023-02-23T09:48:41.648Z,10.48
2023-02-23T09:51:23.699Z,10.65
2023-02-23T09:54:00.085Z,10.74
2023-02-23T09:56:40.298Z,10.68
2023-02-23T09:59:20.776Z,10.59
2023-02-23T10:02:23.033Z,10.40
2023-02-23T10:04:57.389Z,10.72
2023-02-23T10:07:30.636Z,10.55
2023-02-23T10:10:12.000Z,10.78
2023-02-23T10:12:48.394Z,10.82
2023-02-23T10:15:32.400Z,10.92
2023-02-23T10:18:06.722Z,11.06
2023-02-23T10:20:44.083Z,11.15
2023-02-23T10:23:16.788Z,11.03
2023-02-23T10:25:49.961Z,11.18
2023-02-23T10:28:31.118Z,11.31
2023-02-23T10:31:01.896Z,11.27
2023-02-23T10:33:45.215Z,11.56
2023-02-23T10:36:23.217Z,11.71
2023-02-23T10:38:54.093Z,11.64
2023-02-23T10:41:31.228Z,12.06
2023-02-23T10:44:15.653Z,11.88
2023-02-23T10:46:47.936Z,11.95
2023-02-23T10:49:24.840Z,11.74
2023-02-23T10:51:58.195Z,11.95
2023-02-23T10:54:45.794Z,12.04
2023-02-23T10:57:20.501Z,12.08
2023-02-23T11:00:11.862Z,12.37
2023-02-23T11:02:42.421Z,12.43
2023-02-23T11:05:32.397Z,12.36
2023-02-23T11:08:25.155Z,12.37
2023-02-23T11:11:17.164Z,12.45
2023-02-23T11:13:48.811Z,12.20
2023-02-23T11:16:23.512Z,12.04
2023-02-23T11:18:58.151Z,12.04
2023-02-23T11:21:35.723Z,11.96
2023-02-23T11:24:16.515Z,11.96
2023-02-23T11:26:54.935Z,12.03
2023-02-23T11:29:27.326Z,12.33
2023-02-23T11:32:10.180Z,12.55
2023-02-23T11:34:53.713Z,12.84
2023-02-23T11:37:23.760Z,13.35
2023-02-23T11:39:53.696Z,13.34
2023-02-23T11:42:33.510Z,13.45
2023-02-23T11:45:04.868Z,13.47
2023-02-23T11:47:49.952Z,13.12
2023-02-23T11:50:25.425Z,13.09
2023-02-23T11:53:01.769Z,13.18
2023-02-23T11:55:41.274Z,13.46
2023-02-23T11:58:27.021Z,13.70
2023-02-23T12:00:57.825Z,14.03
2023-02-23T12:03:44.548Z,13.97
2023-02-23T12:06:23.103Z,13.80
2023-02-23T12:08:55.743Z,13.76
2023-02-23T12:11:29.853Z,13.91
2023-02-23T12:14:06.799Z,14.08
2023-02-23T12:16:45.414Z,14.01
2023-02-23T12:19:31.956Z,13.93
2023-02-23T12:22:09.462Z,14.10
2023-02-23T12:24:51.447Z,14.01
2023-02-23T12:27:24.342Z,13.96
2023-02-23T12:30:08.442Z,13.74
2023-02-23T12:32:51.375Z,13.64
2023-02-23T12:35:29.550Z,13.70
2023-02-23T12:38:04.239Z,13.83
2023-02-23T12:40:44.337Z,13.78
2023-02-23T12:43:24.890Z,13.94
2023-02-23T12:45:56.207Z,14.04
2023-02-23T12:48:34.811Z,14.19
2023-02-23T12:51:14.285Z,14.18
2023-02-23T12:53:55.442Z,14.28
2023-02-23T12:56:39.579Z,14.06
2023-02-23T12:59:19.194Z,14.09
2023-02-23T13:01:58.326Z,14.07
2023-02-23T13:05:13.302Z,14.16
2023-02-23T13:07:52.769Z,14.22
2023-02-23T13:10:33.392Z,13.96
2023-02-23T13:13:12.837Z,14.19
2023-02-23T13:15:52.988Z,13.99
2023-02-23T13:18:27.724Z,13.98
2023-02-23T13:21:07.654Z,13.76
2023-02-23T13:23:42.966Z,13.88
2023-02-23T13:26:24.938Z,13.81
2023-02-23T13:28:58.845Z,13.84
2023-02-23T13:31:30.662Z,13.71
2023-02-23T13:34:02.160Z,13.61
2023-02-23T13:36:41.333Z,13.51
2023-02-23T13:39:39.729Z,13.40
2023-02-23T13:42:38.316Z,13.66
2023-02-23T13:45:48.659Z,13.41
2023-02-23T13:48:47.330Z,13.36
2023-02-23T13:51:32.239Z,13.45
2023-02-23T13:54:02.887Z,13.50
2023-02-23T13:56:44.100Z,13.47
2023-02-23T13:59:21.970Z,13.58
2023-02-23T14:01:54.304Z,13.48
2023-02-23T14:04:33.570Z,13.50
2023-02-23T14:07:06.893Z,13.48
2023-02-23T14:09:40.142Z,13.57
2023-02-23T14:12:31.806Z,13.52
2023-02-23T14:15:45.340Z,13.57
2023-02-23T14:18:32.952Z,13.67
2023-02-23T14:21:09.734Z,13.77
2023-02-23T14:24:18.780Z,13.76
2023-02-23T14:27:40.370Z,13.90
2023-02-23T14:30:50.039Z,13.83
2023-02-23T14:33:50.400Z,13.99
2023-02-23T14:36:46.908Z,14.02
2023-02-23T14:39:29.137Z,14.02
2023-02-23T14:42:03.104Z,14.08
2023-02-23T14:44:36.715Z,14.11
2023-02-23T14:47:15.943Z,14.07
2023-02-23T14:49:50.276Z,13.96
2023-02-23T14:52:27.972Z,13.92
2023-02-23T14:55:19.805Z,13.96
2023-02-23T14:57:56.480Z,13.97
2023-02-23T15:00:28.254Z,13.94
2023-02-23T15:03:09.273Z,14.02
2023-02-23T15:05:53.724Z,13.96
2023-02-23T15:08:25.688Z,13.84
2023-02-23T15:11:05.539Z,13.83
2023-02-23T15:16:09.058Z,13.69
2023-02-23T15:19:31.973Z,13.69
2023-02-23T15:22:28.891Z,13.70
2023-02-23T15:25:01.673Z,13.54
2023-02-23T15:27:45.196Z,13.54
2023-02-23T15:30:52.506Z,13.40
2023-02-23T15:33:28.883Z,13.44
2023-02-23T15:36:14.525Z,13.42
2023-02-23T15:38:53.020Z,13.23
2023-02-23T15:41:39.507Z,13.26
2023-02-23T15:44:18.942Z,13.26
2023-02-23T15:46:52.976Z,13.23
2023-02-23T15:49:24.785Z,13.13
2023-02-23T15:52:05.646Z,13.07
2023-02-23T15:55:00.780Z,13.07
2023-02-23T15:57:33.093Z,12.99
2023-02-23T16:00:14.387Z,13.00
2023-02-23T16:02:52.206Z,12.87
2023-02-23T16:05:25.710Z,13.03
2023-02-23T16:08:07.089Z,12.92
2023-02-23T16:10:51.305Z,12.86
2023-02-23T16:13:25.055Z,12.86
2023-02-23T16:15:56.415Z,12.83
2023-02-23T16:18:38.549Z,12.78
2023-02-23T16:21:23.529Z,12.77
2023-02-23T16:23:56.579Z,12.82
2023-02-23T16:26:52.982Z,12.78
2023-02-23T16:29:31.318Z,12.74
2023-02-23T16:32:03.541Z,12.90
2023-02-23T16:34:37.648Z,12.87
2023-02-23T16:37:20.306Z,12.68
2023-02-23T16:40:02.571Z,12.69
2023-02-23T16:42:41.254Z,12.61
2023-02-23T16:45:21.643Z,12.63
2023-02-23T16:48:02.772Z,12.48
2023-02-23T16:50:41.816Z,12.53
2023-02-23T16:53:24.377Z,12.60
2023-02-23T16:56:12.582Z,12.66
2023-02-23T16:58:52.116Z,12.49
2023-02-23T17:01:26.350Z,12.53
2023-02-23T17:03:59.679Z,12.47
2023-02-23T17:06:31.236Z,12.45
2023-02-23T17:09:10.038Z,12.44
2023-02-23T17:11:41.068Z,12.29
2023-02-23T17:14:27.547Z,12.43
2023-02-23T17:17:10.893Z,12.32
2023-02-23T17:19:53.888Z,12.30
2023-02-23T17:22:33.367Z,12.30
2023-02-23T17:25:03.285Z,12.37
2023-02-23T17:28:04.613Z,12.26
2023-02-23T17:30:46.108Z,12.25
2023-02-23T17:33:19.492Z,12.23
2023-02-23T17:35:56.069Z,12.14
2023-02-23T17:38:37.130Z,12.14
2023-02-23T17:41:12.942Z,12.20
2023-02-23T17:43:45.877Z,12.06
2023-02-23T17:46:18.387Z,12.13
2023-02-23T17:48:50.703Z,12.03
2023-02-23T17:51:25.410Z,12.24
2023-02-23T17:54:16.617Z,12.13
2023-02-23T17:56:55.128Z,12.06
2023-02-23T17:59:29.935Z,12.17
2023-02-23T18:02:22.919Z,12.05
2023-02-23T18:04:54.937Z,12.18
2023-02-23T18:07:30.345Z,12.07
2023-02-23T18:10:05.636Z,11.86
2023-02-23T18:12:53.078Z,11.82
2023-02-23T18:15:32.193Z,11.68
2023-02-23T18:18:30.486Z,11.90
2023-02-23T18:21:03.911Z,11.88
2023-02-23T18:23:36.690Z,11.80
2023-02-23T18:26:14.444Z,11.82
2023-02-23T18:28:47.133Z,11.88
2023-02-23T18:31:24.003Z,11.91
2023-02-23T18:34:25.216Z,11.78
2023-02-23T18:36:59.127Z,11.78
2023-02-23T18:39:32.012Z,11.69
2023-02-23T18:42:03.256Z,11.83
2023-02-23T18:44:44.693Z,11.81
2023-02-23T18:47:18.831Z,11.77
2023-02-23T18:49:52.917Z,11.70
2023-02-23T18:52:34.708Z,11.65
2023-02-23T18:55:11.502Z,11.78
2023-02-23T18:57:57.296Z,11.68
2023-02-23T19:00:35.436Z,11.62
2023-02-23T19:03:22.289Z,11.61
2023-02-23T19:05:59.836Z,11.59
2023-02-23T19:08:42.952Z,11.64
2023-02-23T19:11:24.903Z,11.60
2023-02-23T19:14:01.579Z,11.65
2023-02-23T19:16:47.160Z,11.61
2023-02-23T19:19:27.557Z,11.36
2023-02-23T19:22:25.195Z,11.23
2023-02-23T19:25:04.103Z,11.32
2023-02-23T19:27:43.898Z,11.36
2023-02-23T19:30:24.200Z,11.40
2023-02-23T19:33:03.039Z,11.53
2023-02-23T19:35:38.987Z,11.47
2023-02-23T19:38:37.590Z,11.59
2023-02-23T19:41:17.276Z,11.56
2023-02-23T19:43:47.723Z,11.49
2023-02-23T19:46:25.798Z,11.35
2023-02-23T19:49:01.063Z,11.43
2023-02-23T19:51:40.426Z,11.51
2023-02-23T19:54:14.859Z,11.38
2023-02-23T19:56:45.901Z,11.45
2023-02-23T19:59:17.504Z,11.34
2023-02-23T20:01:54.670Z,11.40
2023-02-23T20:04:29.129Z,11.40
2023-02-23T20:07:13.869Z,11.18
2023-02-23T20:10:11.182Z,11.26
2023-02-23T20:12:59.794Z,11.38
2023-02-23T20:15:45.761Z,11.21
2023-02-23T20:18:19.064Z,11.31
2023-02-23T20:21:02.842Z,11.45
2023-02-23T20:23:39.948Z,11.38
2023-02-23T20:26:31.318Z,11.31
2023-02-23T20:29:13.638Z,11.38
2023-02-23T20:31:53.528Z,11.21
2023-02-23T20:37:32.120Z,11.27
2023-02-23T20:40:11.153Z,11.27
2023-02-23T20:42:45.804Z,11.21
2023-02-23T20:45:30.769Z,11.30
2023-02-23T20:48:16.576Z,11.20
2023-02-23T20:50:59.204Z,11.29
2023-02-23T20:53:30.941Z,11.25
2023-02-23T20:56:15.339Z,11.21
2023-02-23T21:01:40.547Z,11.24
2023-02-23T21:04:13.406Z,11.19
2023-02-23T21:06:46.155Z,11.14
2023-02-23T21:09:29.905Z,11.18
2023-02-23T21:12:00.914Z,11.22
2023-02-23T21:14:35.339Z,11.12
2023-02-23T21:17:10.558Z,11.11
2023-02-23T21:19:50.079Z,11.12
2023-02-23T21:22:31.778Z,11.04
2023-02-23T21:25:14.432Z,11.09
2023-02-23T21:27:50.670Z,11.20
2023-02-23T21:30:35.134Z,11.06
2023-02-23T21:33:17.463Z,10.94
2023-02-23T21:35:47.595Z,10.98
2023-02-23T21:38:17.085Z,11.09
2023-02-23T21:40:48.751Z,11.06
2023-02-23T21:43:29.608Z,10.95
2023-02-23T21:46:19.960Z,10.85
2023-02-23T21:48:57.618Z,10.99
2023-02-23T21:51:36.686Z,11.11
2023-02-23T21:54:14.028Z,10.93
2023-02-23T21:56:43.718Z,10.88
2023-02-23T21:59:16.617Z,10.97
2023-02-23T22:01:53.766Z,10.89
2023-02-23T22:04:25.091Z,10.98
2023-02-23T22:06:55.999Z,11.03
2023-02-23T22:09:27.694Z,11.00
2023-02-23T22:12:01.173Z,11.03
2023-02-23T22:14:29.533Z,11.09
2023-02-23T22:17:04.003Z,10.94
2023-02-23T22:19:35.914Z,10.85
2023-02-23T22:22:04.633Z,11.05
2023-02-23T22:24:34.503Z,10.91
2023-02-23T22:27:04.680Z,11.04
2023-02-23T22:29:38.669Z,10.94
2023-02-23T22:32:13.822Z,11.01
2023-02-23T22:34:43.781Z,10.99
2023-02-23T22:37:13.980Z,10.93
2023-02-23T22:39:51.084Z,11.09
2023-02-23T22:42:22.178Z,11.13
2023-02-23T22:44:59.933Z,11.03
2023-02-23T22:47:34.944Z,11.02
2023-02-23T22:50:07.023Z,10.96
2023-02-23T22:52:41.175Z,10.70
2023-02-23T22:55:24.386Z,10.86
2023-02-23T22:57:55.208Z,10.89
2023-02-23T23:00:27.922Z,10.95
2023-02-23T23:03:12.351Z,10.87
2023-02-23T23:05:44.045Z,10.74
2023-02-23T23:08:18.067Z,10.68
2023-02-23T23:10:50.804Z,10.78
2023-02-23T23:13:23.098Z,10.88
2023-02-23T23:15:55.236Z,10.68
2023-02-23T23:18:42.464Z,10.75
2023-02-23T23:21:17.466Z,10.70
2023-02-23T23:23:48.761Z,10.86
2023-02-23T23:26:20.226Z,10.87
2023-02-23T23:28:50.931Z,10.88
2023-02-23T23:31:25.637Z,10.82
2023-02-23T23:34:00.114Z,10.85
2023-02-23T23:36:33.234Z,10.81
2023-02-23T23:39:10.309Z,10.82
2023-02-23T23:41:49.013Z,10.87
2023-02-23T23:44:18.132Z,10.85
2023-02-23T23:46:50.800Z,10.76
2023-02-23T23:49:26.113Z,10.65
2023-02-23T23:51:57.936Z,10.70
2023-02-23T23:54:38.821Z,10.61
2023-02-23T23:57:13.893Z,10.80
2023-02-23T23:59:55.822Z,10.82
